sensor_id;sensor_type;location;lat;lon;timestamp;temperature;humidity
28069;DHT22;15382;47.578;8.086;2023-05-20T00:09:07;12.10;99.90
28069;DHT22;15382;47.578;8.086;2023-05-20T00:19:08;12.10;99.90
28069;DHT22;15382;47.578;8.086;2023-05-20T00:29:08;12.30;99.90
28069;DHT22;15382;47.578;8.086;2023-05-20T00:39:09;12.20;99.90
28069;DHT22;15382;47.578;8.086;2023-05-20T00:49:10;11.90;99.90
28069;DHT22;15382;47.578;8.086;2023-05-20T00:59:11;11.70;99.90
28069;DHT22;15382;47.578;8.086;2023-05-20T01:09:12;11.60;99.90
28069;DHT22;15382;47.578;8.086;2023-05-20T01:19:35;11.50;99.90
28069;DHT22;15382;47.578;8.086;2023-05-20T01:29:36;11.50;99.90
28069;DHT22;15382;47.578;8.086;2023-05-20T01:39:37;11.40;99.90
28069;DHT22;15382;47.578;8.086;2023-05-20T01:49:39;11.40;99.90
28069;DHT22;15382;47.578;8.086;2023-05-20T01:59:39;11.60;99.90
28069;DHT22;15382;47.578;8.086;2023-05-20T02:09:40;11.50;99.90
28069;DHT22;15382;47.578;8.086;2023-05-20T02:19:42;11.30;99.90
28069;DHT22;15382;47.578;8.086;2023-05-20T02:29:43;11.30;99.90
28069;DHT22;15382;47.578;8.086;2023-05-20T02:39:45;11.40;99.90
28069;DHT22;15382;47.578;8.086;2023-05-20T02:49:47;11.60;99.90
28069;DHT22;15382;47.578;8.086;2023-05-20T02:59:48;11.60;99.90
28069;DHT22;15382;47.578;8.086;2023-05-20T03:09:49;11.60;99.90
28069;DHT22;15382;47.578;8.086;2023-05-20T03:19:51;11.60;99.90
28069;DHT22;15382;47.578;8.086;2023-05-20T03:29:52;11.50;99.90
28069;DHT22;15382;47.578;8.086;2023-05-20T03:39:54;11.50;99.90
28069;DHT22;15382;47.578;8.086;2023-05-20T03:49:55;11.40;99.90
28069;DHT22;15382;47.578;8.086;2023-05-20T03:59:56;11.30;99.90
28069;DHT22;15382;47.578;8.086;2023-05-20T04:09:57;11.10;99.90
28069;DHT22;15382;47.578;8.086;2023-05-20T04:19:58;11.10;99.90
28069;DHT22;15382;47.578;8.086;2023-05-20T04:29:59;11.10;99.90
28069;DHT22;15382;47.578;8.086;2023-05-20T04:40:06;11.30;99.90
28069;DHT22;15382;47.578;8.086;2023-05-20T04:50:09;11.40;99.90
28069;DHT22;15382;47.578;8.086;2023-05-20T05:00:10;11.60;99.90
28069;DHT22;15382;47.578;8.086;2023-05-20T05:10:12;11.70;99.90
28069;DHT22;15382;47.578;8.086;2023-05-20T05:20:13;12.00;99.90
28069;DHT22;15382;47.578;8.086;2023-05-20T05:30:14;12.10;99.90
28069;DHT22;15382;47.578;8.086;2023-05-20T05:40:14;12.20;99.90
28069;DHT22;15382;47.578;8.086;2023-05-20T05:50:16;12.40;99.90
28069;DHT22;15382;47.578;8.086;2023-05-20T06:00:17;12.50;99.90
28069;DHT22;15382;47.578;8.086;2023-05-20T06:10:20;12.70;99.90
28069;DHT22;15382;47.578;8.086;2023-05-20T06:20:21;12.60;99.90
28069;DHT22;15382;47.578;8.086;2023-05-20T06:30:21;12.70;99.90
28069;DHT22;15382;47.578;8.086;2023-05-20T06:40:22;13.00;99.90
28069;DHT22;15382;47.578;8.086;2023-05-20T06:50:23;13.10;99.90
28069;DHT22;15382;47.578;8.086;2023-05-20T07:00:25;13.10;99.90
28069;DHT22;15382;47.578;8.086;2023-05-20T07:10:28;13.30;99.90
28069;DHT22;15382;47.578;8.086;2023-05-20T07:20:30;13.40;99.90
28069;DHT22;15382;47.578;8.086;2023-05-20T07:30:34;13.50;99.90
28069;DHT22;15382;47.578;8.086;2023-05-20T07:40:51;13.50;99.90
28069;DHT22;15382;47.578;8.086;2023-05-20T07:50:52;13.50;99.90
28069;DHT22;15382;47.578;8.086;2023-05-20T08:00:53;13.50;99.90
28069;DHT22;15382;47.578;8.086;2023-05-20T08:10:54;13.70;99.90
28069;DHT22;15382;47.578;8.086;2023-05-20T08:20:58;14.00;99.90
28069;DHT22;15382;47.578;8.086;2023-05-20T08:31:00;14.30;99.90
28069;DHT22;15382;47.578;8.086;2023-05-20T08:41:02;14.80;99.90
28069;DHT22;15382;47.578;8.086;2023-05-20T08:51:03;15.40;99.90
28069;DHT22;15382;47.578;8.086;2023-05-20T09:01:05;15.70;99.90
28069;DHT22;15382;47.578;8.086;2023-05-20T09:11:08;16.20;99.90
28069;DHT22;15382;47.578;8.086;2023-05-20T09:21:09;16.50;99.90
28069;DHT22;15382;47.578;8.086;2023-05-20T09:31:10;16.70;99.90
28069;DHT22;15382;47.578;8.086;2023-05-20T09:41:13;16.60;99.90
28069;DHT22;15382;47.578;8.086;2023-05-20T09:51:14;15.90;99.90
28069;DHT22;15382;47.578;8.086;2023-05-20T10:01:16;16.80;99.90
28069;DHT22;15382;47.578;8.086;2023-05-20T10:11:38;16.40;99.90
28069;DHT22;15382;47.578;8.086;2023-05-20T10:21:42;16.40;99.90
28069;DHT22;15382;47.578;8.086;2023-05-20T10:31:44;16.80;99.90
28069;DHT22;15382;47.578;8.086;2023-05-20T10:41:46;18.20;99.90
28069;DHT22;15382;47.578;8.086;2023-05-20T10:51:46;18.30;99.90
28069;DHT22;15382;47.578;8.086;2023-05-20T11:01:47;18.20;99.90
28069;DHT22;15382;47.578;8.086;2023-05-20T11:11:52;18.10;99.90
28069;DHT22;15382;47.578;8.086;2023-05-20T11:21:52;18.40;99.90
28069;DHT22;15382;47.578;8.086;2023-05-20T11:31:53;19.60;99.90
28069;DHT22;15382;47.578;8.086;2023-05-20T11:41:54;20.80;99.90
28069;DHT22;15382;47.578;8.086;2023-05-20T11:51:55;22.30;99.90
28069;DHT22;15382;47.578;8.086;2023-05-20T12:01:56;20.80;99.90
28069;DHT22;15382;47.578;8.086;2023-05-20T12:11:56;21.10;99.90
28069;DHT22;15382;47.578;8.086;2023-05-20T12:21:58;20.50;99.90
28069;DHT22;15382;47.578;8.086;2023-05-20T12:32:00;20.60;99.90
28069;DHT22;15382;47.578;8.086;2023-05-20T12:42:00;20.90;99.90
28069;DHT22;15382;47.578;8.086;2023-05-20T12:52:01;20.90;99.90
28069;DHT22;15382;47.578;8.086;2023-05-20T13:02:02;20.80;99.90
28069;DHT22;15382;47.578;8.086;2023-05-20T13:12:02;20.70;99.90
28069;DHT22;15382;47.578;8.086;2023-05-20T13:22:03;19.60;99.90
28069;DHT22;15382;47.578;8.086;2023-05-20T13:32:06;20.10;99.90
28069;DHT22;15382;47.578;8.086;2023-05-20T13:42:06;20.30;99.90
28069;DHT22;15382;47.578;8.086;2023-05-20T13:52:07;19.90;99.90
28069;DHT22;15382;47.578;8.086;2023-05-20T14:02:08;19.60;99.90
28069;DHT22;15382;47.578;8.086;2023-05-20T14:12:09;19.40;99.90
28069;DHT22;15382;47.578;8.086;2023-05-20T14:22:10;19.60;99.90
28069;DHT22;15382;47.578;8.086;2023-05-20T14:32:13;20.10;99.90
28069;DHT22;15382;47.578;8.086;2023-05-20T14:42:14;20.10;99.90
28069;DHT22;15382;47.578;8.086;2023-05-20T14:52:16;20.40;99.90
28069;DHT22;15382;47.578;8.086;2023-05-20T15:02:17;20.50;99.90
28069;DHT22;15382;47.578;8.086;2023-05-20T15:12:18;20.30;99.90
28069;DHT22;15382;47.578;8.086;2023-05-20T15:22:18;20.40;99.90
28069;DHT22;15382;47.578;8.086;2023-05-20T15:32:20;20.30;99.90
28069;DHT22;15382;47.578;8.086;2023-05-20T15:42:20;20.30;99.90
28069;DHT22;15382;47.578;8.086;2023-05-20T15:52:21;19.50;99.90
28069;DHT22;15382;47.578;8.086;2023-05-20T16:02:22;18.70;99.90
28069;DHT22;15382;47.578;8.086;2023-05-20T16:12:23;18.90;99.90
28069;DHT22;15382;47.578;8.086;2023-05-20T16:22:24;19.20;99.90
28069;DHT22;15382;47.578;8.086;2023-05-20T16:32:25;19.10;99.90
28069;DHT22;15382;47.578;8.086;2023-05-20T16:42:26;18.90;99.90
28069;DHT22;15382;47.578;8.086;2023-05-20T16:52:27;19.00;99.90
28069;DHT22;15382;47.578;8.086;2023-05-20T17:02:27;19.20;99.90
28069;DHT22;15382;47.578;8.086;2023-05-20T17:12:28;18.90;99.90
28069;DHT22;15382;47.578;8.086;2023-05-20T17:22:29;19.20;99.90
28069;DHT22;15382;47.578;8.086;2023-05-20T17:32:29;18.60;99.90
28069;DHT22;15382;47.578;8.086;2023-05-20T17:42:30;18.40;99.90
28069;DHT22;15382;47.578;8.086;2023-05-20T17:52:31;18.30;99.90
28069;DHT22;15382;47.578;8.086;2023-05-20T18:02:32;17.90;99.90
28069;DHT22;15382;47.578;8.086;2023-05-20T18:12:32;17.50;99.90
28069;DHT22;15382;47.578;8.086;2023-05-20T18:22:33;17.20;99.90
28069;DHT22;15382;47.578;8.086;2023-05-20T18:32:34;16.70;99.90
28069;DHT22;15382;47.578;8.086;2023-05-20T18:42:35;16.80;99.90
28069;DHT22;15382;47.578;8.086;2023-05-20T18:52:35;16.70;99.90
28069;DHT22;15382;47.578;8.086;2023-05-20T19:02:37;16.50;99.90
28069;DHT22;15382;47.578;8.086;2023-05-20T19:12:38;16.20;99.90
28069;DHT22;15382;47.578;8.086;2023-05-20T19:22:38;16.30;99.90
28069;DHT22;15382;47.578;8.086;2023-05-20T19:32:39;16.00;99.90
28069;DHT22;15382;47.578;8.086;2023-05-20T19:42:40;15.90;99.90
28069;DHT22;15382;47.578;8.086;2023-05-20T19:52:40;15.80;99.90
28069;DHT22;15382;47.578;8.086;2023-05-20T20:02:41;15.50;99.90
28069;DHT22;15382;47.578;8.086;2023-05-20T20:12:42;15.10;99.90
28069;DHT22;15382;47.578;8.086;2023-05-20T20:22:43;14.90;99.90
28069;DHT22;15382;47.578;8.086;2023-05-20T20:32:43;14.60;99.90
28069;DHT22;15382;47.578;8.086;2023-05-20T20:42:47;14.30;99.90
28069;DHT22;15382;47.578;8.086;2023-05-20T20:52:48;14.20;99.90
28069;DHT22;15382;47.578;8.086;2023-05-20T21:02:48;13.90;99.90
28069;DHT22;15382;47.578;8.086;2023-05-20T21:12:49;13.90;99.90
28069;DHT22;15382;47.578;8.086;2023-05-20T21:22:50;13.90;99.90
28069;DHT22;15382;47.578;8.086;2023-05-20T21:32:50;14.00;99.90
28069;DHT22;15382;47.578;8.086;2023-05-20T21:42:51;13.80;99.90
28069;DHT22;15382;47.578;8.086;2023-05-20T21:52:52;13.50;99.90
28069;DHT22;15382;47.578;8.086;2023-05-20T22:02:52;13.40;99.90
28069;DHT22;15382;47.578;8.086;2023-05-20T22:12:53;13.40;99.90
28069;DHT22;15382;47.578;8.086;2023-05-20T22:22:54;13.10;99.90
28069;DHT22;15382;47.578;8.086;2023-05-20T22:32:55;13.00;99.90
28069;DHT22;15382;47.578;8.086;2023-05-20T22:42:57;13.10;99.90
28069;DHT22;15382;47.578;8.086;2023-05-20T22:52:58;12.90;99.90
28069;DHT22;15382;47.578;8.086;2023-05-20T23:02:58;12.80;99.90
28069;DHT22;15382;47.578;8.086;2023-05-20T23:12:59;12.80;99.90
28069;DHT22;15382;47.578;8.086;2023-05-20T23:23:00;12.80;99.90
28069;DHT22;15382;47.578;8.086;2023-05-20T23:33:00;12.70;99.90
28069;DHT22;15382;47.578;8.086;2023-05-20T23:43:02;12.60;99.90
28069;DHT22;15382;47.578;8.086;2023-05-20T23:53:03;12.40;99.90
